Weather History for KAPY - February, 2013

Change the Weather History Date:

Monday, February 11, 2013

  Actual Average (KLRD) Record (KLRD)
Temperature  
Mean Temperature 68 °F 60 °F  
Max Temperature 77 °F 71 °F 92 °F (1922)
Min Temperature 59 °F 50 °F 24 °F (1929)
Degree Days  
Heating Degree Days 0 6  
Month to date heating degree days 79  
Since 1 July heating degree days 758  
Cooling Degree Days 3 2  
Month to date cooling degree days 18  
Year to date cooling degree days 46  
Growing Degree Days 18 (Base 50)    
Moisture  
Dew Point 50 °F    
Average Humidity 58    
Maximum Humidity 81    
Minimum Humidity 37    
Precipitation  
Precipitation 0.02 in 0.03 in 0.94 in (1963)
Month to date precipitation 0.35  
Year to date precipitation 1.25  
Sea Level Pressure  
Sea Level Pressure 29.92 in    
Wind  
Wind Speed 6 mph (NNE)    
Max Wind Speed 14 mph    
Max Gust Speed 17 mph    
Visibility 10 miles    
Events Rain    
T = Trace of Precipitation, MM = Missing Value Source: NWS Daily Summary

Daily Weather History Graph

Daily Weather History Graph

Search for Another Location

Airport or City:

Trip Planner

Search our weather history database for the weather conditions in past years. The results will help you decide how hot, cold, wet, or windy it might be!

Date:

Astronomy

Feb. 11, 2013 Rise Set
Actual Time 7:16 AM CST 6:26 PM CST
Civil Twilight 6:52 AM CST 6:50 PM CST
Nautical Twilight 6:24 AM CST 7:17 PM CST
Astronomical Twilight 5:57 AM CST 7:45 PM CST
Moon 7:55 AM CST (2/11) 8:08 PM CST (2/11)
Length of Visible Light 11h 58m
Length of Day
11h 10m
Waxing Crescent, 3% of the Moon is Illuminated
Feb 11
Waxing Crescent
Feb 17
First Quarter
Feb 25
Full
Mar 4
Last Quarter
Mar 11
New

Hourly Weather History & Observations

Time (CST) Temp. Dew Point Humidity Pressure Visibility Wind Dir Wind Speed Gust Speed Precip Events Conditions
12:15 AM 67.5 °F 40.5 °F 37% 29.94 in 10.0 mi North 5.8 mph - N/A   Overcast
12:35 AM 67.1 °F 40.1 °F 37% 29.94 in 10.0 mi North 9.2 mph - N/A   Overcast
12:55 AM 66.7 °F 40.6 °F 39% 29.94 in 10.0 mi North 5.8 mph - N/A   Overcast
1:15 AM 63.7 °F 46.8 °F 54% 29.95 in 7.0 mi North 6.9 mph - 0.01 in Rain Light Rain
1:35 AM 61.7 °F 50.7 °F 67% 29.94 in 7.0 mi NNW 5.8 mph - 0.02 in Rain Rain
1:55 AM 60.8 °F 51.4 °F 71% 29.93 in 7.0 mi North 5.8 mph - 0.02 in   Drizzle
2:15 AM 59.9 °F 50.4 °F 71% 29.93 in 10.0 mi NNW 6.9 mph - N/A   Drizzle
2:35 AM 59.9 °F 48.7 °F 67% 29.92 in 10.0 mi North 5.8 mph - N/A   Overcast
2:55 AM 59.9 °F 48.7 °F 67% 29.92 in 10.0 mi North 6.9 mph - N/A   Overcast
3:15 AM 60.3 °F 48.0 °F 64% 29.92 in 10.0 mi NNW 6.9 mph - N/A   Overcast
3:35 AM 60.1 °F 48.0 °F 64% 29.92 in 10.0 mi NNW 6.9 mph - N/A   Overcast
3:55 AM 60.3 °F 47.7 °F 63% 29.92 in 10.0 mi North 8.1 mph - N/A   Overcast
4:15 AM 60.1 °F 48.0 °F 64% 29.91 in 10.0 mi North 5.8 mph - N/A   Overcast
4:35 AM 60.3 °F 47.5 °F 63% 29.92 in 10.0 mi North 5.8 mph - N/A   Overcast
4:55 AM 60.1 °F 46.6 °F 61% 29.93 in 10.0 mi North 5.8 mph - N/A   Overcast
5:15 AM 59.9 °F 45.7 °F 59% 29.92 in 10.0 mi North 8.1 mph - N/A   Overcast
5:35 AM 59.9 °F 45.0 °F 58% 29.92 in 10.0 mi NNE 8.1 mph - N/A   Overcast
5:55 AM 59.9 °F 44.2 °F 56% 29.92 in 10.0 mi NNE 6.9 mph - N/A   Overcast
6:15 AM 59.4 °F 43.0 °F 55% 29.93 in 10.0 mi North 5.8 mph - N/A   Overcast
6:35 AM 59.2 °F 42.8 °F 55% 29.93 in 10.0 mi NNE 3.5 mph - N/A   Overcast
6:55 AM 59.2 °F 43.7 °F 57% 29.93 in 10.0 mi Calm Calm - N/A   Overcast
7:15 AM 59.4 °F 44.2 °F 57% 29.94 in 10.0 mi Calm Calm - N/A   Overcast
7:35 AM 59.5 °F 44.2 °F 57% 29.95 in 10.0 mi NW 3.5 mph - N/A   Overcast
7:55 AM 59.9 °F 43.5 °F 55% 29.97 in 10.0 mi NNW 4.6 mph - N/A   Overcast
8:15 AM 60.4 °F 43.7 °F 54% 29.97 in 10.0 mi NNW 4.6 mph - N/A   Overcast
8:35 AM 61.2 °F 44.2 °F 54% 29.98 in 10.0 mi North 5.8 mph - N/A   Overcast
8:55 AM 61.7 °F 44.8 °F 54% 29.98 in 10.0 mi North 5.8 mph - N/A   Overcast
9:15 AM 62.1 °F 45.7 °F 55% 29.99 in 10.0 mi North 4.6 mph - N/A   Overcast
9:35 AM 62.4 °F 46.6 °F 56% 29.99 in 10.0 mi North 4.6 mph - N/A   Overcast
9:55 AM 63.0 °F 47.5 °F 57% 29.98 in 10.0 mi ENE 5.8 mph - N/A   Overcast
10:15 AM 63.3 °F 48.7 °F 59% 29.99 in 10.0 mi NNE 4.6 mph - N/A   Overcast
10:35 AM 63.9 °F 48.9 °F 58% 29.99 in 10.0 mi North 4.6 mph - N/A   Overcast
10:55 AM 64.4 °F 49.3 °F 58% 29.99 in 10.0 mi North 4.6 mph - N/A   Overcast
11:15 AM 64.9 °F 49.3 °F 57% 29.99 in 10.0 mi North 5.8 mph - N/A   Overcast
11:35 AM 66.6 °F 47.7 °F 51% 29.98 in 10.0 mi North 4.6 mph - N/A   Overcast
11:55 AM 66.9 °F 48.9 °F 52% 29.97 in 10.0 mi North 6.9 mph - N/A   Overcast
12:15 PM 67.3 °F 49.3 °F 52% 29.97 in 10.0 mi NNW 5.8 mph - N/A   Overcast
12:35 PM 68.2 °F 49.8 °F 52% 29.95 in 10.0 mi Calm Calm - N/A   Overcast
12:55 PM 68.7 °F 49.5 °F 50% 29.94 in 10.0 mi NE 5.8 mph - N/A   Overcast
1:15 PM 69.8 °F 49.8 °F 49% 29.93 in 10.0 mi North 8.1 mph - N/A   Overcast
1:35 PM 70.7 °F 50.2 °F 48% 29.91 in 10.0 mi North 4.6 mph - N/A   Mostly Cloudy
2:15 PM 72.7 °F 49.3 °F 44% 29.89 in 10.0 mi NNW 3.5 mph - N/A   Clear
2:35 PM 73.0 °F 49.1 °F 43% 29.87 in 10.0 mi NW 6.9 mph - N/A   Scattered Clouds
2:55 PM 73.8 °F 49.8 °F 43% 29.86 in 10.0 mi ENE 4.6 mph - N/A   Clear
3:15 PM 75.2 °F 49.5 °F 40% 29.85 in 10.0 mi NNE 6.9 mph - N/A   Clear
3:35 PM 75.4 °F 50.0 °F 41% 29.85 in 10.0 mi East 3.5 mph - N/A   Clear
3:55 PM 76.3 °F 50.2 °F 40% 29.84 in 10.0 mi NNE 4.6 mph - N/A   Clear
4:55 PM 77.5 °F 53.2 °F 43% 29.83 in 10.0 mi NNE 5.8 mph - N/A   Clear
5:15 PM 77.0 °F 52.3 °F 42% 29.83 in 10.0 mi NNE 6.9 mph - N/A   Clear
5:35 PM 76.1 °F 52.9 °F 44% 29.83 in 10.0 mi NE 9.2 mph - N/A   Clear
5:55 PM 75.2 °F 52.9 °F 46% 29.84 in 10.0 mi ENE 6.9 mph - N/A   Clear
6:15 PM 73.8 °F 53.6 °F 49% 29.83 in 10.0 mi NE 10.4 mph - N/A   Clear
6:35 PM 72.3 °F 52.9 °F 50% 29.84 in 10.0 mi NE 6.9 mph - N/A   Clear
6:55 PM 71.1 °F 53.6 °F 54% 29.85 in 10.0 mi NE 6.9 mph - N/A   Clear
7:15 PM 69.8 °F 54.0 °F 57% 29.85 in 10.0 mi ENE 8.1 mph - N/A   Clear
7:35 PM 68.7 °F 53.6 °F 58% 29.86 in 10.0 mi ENE 12.7 mph - N/A   Clear
7:55 PM 66.7 °F 55.0 °F 66% 29.87 in 10.0 mi East 11.5 mph 17.3 mph N/A   Clear
8:15 PM 65.3 °F 56.7 °F 74% 29.87 in 10.0 mi ENE 13.8 mph - N/A   Clear
8:35 PM 64.8 °F 56.3 °F 74% 29.88 in 10.0 mi ENE 11.5 mph 17.3 mph N/A   Scattered Clouds
8:55 PM 64.6 °F 55.6 °F 73% 29.89 in 10.0 mi East 9.2 mph - N/A   Mostly Cloudy
9:15 PM 64.0 °F 55.9 °F 75% 29.90 in 10.0 mi East 6.9 mph - N/A   Overcast
9:35 PM 63.5 °F 55.8 °F 76% 29.90 in 10.0 mi ENE 11.5 mph - N/A   Overcast
9:55 PM 63.1 °F 55.9 °F 77% 29.90 in 10.0 mi ENE 10.4 mph - N/A   Overcast
10:15 PM 63.0 °F 55.9 °F 78% 29.91 in 10.0 mi NE 5.8 mph - N/A   Overcast
10:35 PM 62.8 °F 55.4 °F 77% 29.91 in 10.0 mi NE 5.8 mph - N/A   Overcast
10:55 PM 62.6 °F 55.4 °F 77% 29.90 in 10.0 mi NE 4.6 mph - N/A   Overcast
11:15 PM 62.1 °F 55.6 °F 79% 29.90 in 10.0 mi ENE 10.4 mph - N/A   Overcast
11:35 PM 61.9 °F 55.6 °F 80% 29.91 in 10.0 mi East 6.9 mph - N/A   Overcast
11:55 PM 61.3 °F 55.6 °F 81% 29.90 in 10.0 mi ENE 9.2 mph - N/A   Overcast